Time;durP1;ratioP1;P1;durP2;ratioP2;P2;SDS_P1;SDS_P2;PMS_P1;PMS_P2;Temp;Humidity;BMP_temperature;BMP_pressure;BME280_temperature;BME280_humidity;BME280_pressure;Samples;Min_cycle;Max_cycle;Signal;HPM_P1;HPM_P2
2023/10/19 00:00:50;;;;;;;20.17;17.97;;;10.60;99.90;;;;;;4972686;28;20229;-33
2023/10/19 00:03:19;;;;;;;21.63;18.07;;;10.60;99.90;;;;;;4974954;28;20213;-33
2023/10/19 00:05:46;;;;;;;21.03;18.67;;;10.60;99.90;;;;;;4993725;28;20197;-33
2023/10/19 00:10:43;;;;;;;23.83;18.87;;;10.60;99.90;;;;;;4993258;28;20204;-33
2023/10/19 00:13:11;;;;;;;23.37;19.27;;;10.50;99.90;;;;;;4976709;28;20272;-32
2023/10/19 00:15:48;;;;;;;22.33;18.63;;;10.50;99.90;;;;;;4977534;28;20243;-33
2023/10/19 00:23:35;;;;;;;20.37;17.67;;;10.60;99.90;;;;;;4991857;28;20216;-32
2023/10/19 00:26:14;;;;;;;21.27;18.17;;;10.60;99.90;;;;;;4991475;28;20178;-33
2023/10/19 00:28:45;;;;;;;19.00;16.67;;;10.60;99.90;;;;;;4977060;28;20194;-32
2023/10/19 00:31:13;;;;;;;20.43;18.10;;;10.60;99.90;;;;;;4977266;28;20183;-32
2023/10/19 00:33:39;;;;;;;20.60;18.37;;;10.60;99.90;;;;;;4979524;28;20343;-32
2023/10/19 00:36:07;;;;;;;19.43;17.37;;;10.60;99.90;;;;;;4977200;28;20193;-32
2023/10/19 00:41:11;;;;;;;21.97;17.77;;;10.60;99.90;;;;;;4993084;28;20218;-33
2023/10/19 00:43:45;;;;;;;20.10;18.00;;;10.50;99.90;;;;;;4976551;28;20203;-33
2023/10/19 00:48:58;;;;;;;22.77;18.97;;;10.50;99.90;;;;;;4996754;28;20189;-31
2023/10/19 00:54:08;;;;;;;23.80;19.37;;;10.50;99.90;;;;;;5008303;28;20228;-33
2023/10/19 00:56:35;;;;;;;21.77;18.70;;;10.50;99.90;;;;;;4977372;28;20182;-32
2023/10/19 00:59:14;;;;;;;22.87;18.50;;;10.60;99.90;;;;;;4993790;28;20210;-33
2023/10/19 01:01:45;;;;;;;20.43;16.73;;;10.60;99.90;;;;;;4985610;28;20272;-32
2023/10/19 01:04:20;;;;;;;21.73;18.33;;;10.60;99.90;;;;;;4975643;28;20186;-33
2023/10/19 01:07:00;;;;;;;18.27;16.37;;;10.70;99.90;;;;;;4977529;28;20179;-32
2023/10/19 01:09:34;;;;;;;19.13;16.97;;;10.70;99.90;;;;;;4979295;28;20272;-32
2023/10/19 01:12:05;;;;;;;18.23;16.13;;;10.70;99.90;;;;;;4993238;28;20340;-33
2023/10/19 01:14:32;;;;;;;17.83;15.83;;;10.80;99.90;;;;;;4992261;28;20184;-31
2023/10/19 01:17:01;;;;;;;19.63;16.90;;;10.80;99.90;;;;;;4983495;28;20289;-31
2023/10/19 01:19:27;;;;;;;19.37;17.13;;;10.80;99.90;;;;;;4993391;28;20215;-31
2023/10/19 01:21:58;;;;;;;18.73;16.73;;;10.80;99.90;;;;;;4993254;28;20269;-32
2023/10/19 01:24:33;;;;;;;21.03;17.13;;;10.80;99.90;;;;;;4977140;28;20185;-31
2023/10/19 01:27:00;;;;;;;22.30;17.20;;;10.80;99.90;;;;;;4991760;28;20184;-31
2023/10/19 01:29:27;;;;;;;20.87;18.23;;;10.80;99.90;;;;;;4976064;28;20187;-31
2023/10/19 01:32:08;;;;;;;20.80;18.23;;;10.80;99.90;;;;;;4976930;28;20209;-33
2023/10/19 01:34:34;;;;;;;20.93;17.60;;;10.80;99.90;;;;;;4976758;28;20193;-32
2023/10/19 01:37:03;;;;;;;22.37;18.63;;;10.80;99.90;;;;;;4975354;28;20187;-31
2023/10/19 01:39:36;;;;;;;19.87;16.60;;;10.80;99.90;;;;;;4977232;28;20220;-32
2023/10/19 01:42:08;;;;;;;23.37;18.37;;;10.80;99.90;;;;;;4992359;28;20348;-32
2023/10/19 01:44:35;;;;;;;21.43;17.90;;;10.80;99.90;;;;;;4993404;28;20171;-32
2023/10/19 01:47:05;;;;;;;24.13;19.93;;;10.80;99.90;;;;;;4987251;28;20189;-31
2023/10/19 01:49:31;;;;;;;20.73;18.47;;;10.70;99.90;;;;;;5005330;28;20189;-31
2023/10/19 01:51:57;;;;;;;19.53;17.43;;;10.70;99.90;;;;;;4993298;28;20209;-31
2023/10/19 01:54:26;;;;;;;23.23;19.07;;;10.70;99.90;;;;;;4993836;28;20222;-32
2023/10/19 01:56:56;;;;;;;19.00;16.67;;;10.80;99.90;;;;;;4981834;28;20215;-31
2023/10/19 01:59:45;;;;;;;22.53;18.43;;;10.70;99.90;;;;;;4975131;28;20241;-32
2023/10/19 02:02:11;;;;;;;20.47;17.63;;;10.80;99.90;;;;;;4967383;28;20210;-32
2023/10/19 02:04:40;;;;;;;21.63;18.37;;;10.80;99.90;;;;;;4981165;28;20198;-31
2023/10/19 02:07:13;;;;;;;22.97;18.70;;;10.80;99.90;;;;;;4973332;28;20201;-32
2023/10/19 02:09:40;;;;;;;21.47;18.33;;;10.80;99.90;;;;;;4973886;28;20185;-31
2023/10/19 02:12:07;;;;;;;19.43;17.07;;;10.80;99.90;;;;;;4973302;28;20209;-31
2023/10/19 02:14:33;;;;;;;19.33;17.20;;;10.80;99.90;;;;;;4972619;28;20192;-31
2023/10/19 02:17:01;;;;;;;19.77;17.67;;;10.80;99.90;;;;;;4972026;28;20195;-31
2023/10/19 02:19:28;;;;;;;18.33;16.43;;;10.80;99.90;;;;;;4974368;28;20219;-31
2023/10/19 02:21:56;;;;;;;17.90;16.07;;;10.80;99.90;;;;;;4974985;28;20206;-30
2023/10/19 02:24:22;;;;;;;18.27;16.40;;;10.70;99.90;;;;;;4975229;28;20184;-32
2023/10/19 02:26:54;;;;;;;17.43;15.57;;;10.70;99.90;;;;;;4990879;28;20213;-31
2023/10/19 02:29:21;;;;;;;20.47;17.27;;;10.70;99.90;;;;;;4991520;28;20176;-32
2023/10/19 02:31:48;;;;;;;21.40;17.67;;;10.70;99.90;;;;;;4989879;28;20451;-33
2023/10/19 02:34:17;;;;;;;19.43;17.33;;;10.60;99.90;;;;;;4990371;28;20282;-33
2023/10/19 02:36:44;;;;;;;18.80;16.80;;;10.60;99.90;;;;;;4990571;28;20191;-33
2023/10/19 02:39:13;;;;;;;22.70;18.43;;;10.60;99.90;;;;;;4974655;28;20210;-33
2023/10/19 02:41:49;;;;;;;19.10;17.07;;;10.60;99.90;;;;;;4989883;28;20181;-32
2023/10/19 02:44:21;;;;;;;20.30;16.93;;;10.50;99.90;;;;;;4990579;28;20182;-33
2023/10/19 02:46:57;;;;;;;20.37;16.77;;;10.50;99.90;;;;;;4974035;28;20177;-33
2023/10/19 02:49:25;;;;;;;18.23;16.37;;;10.50;99.90;;;;;;4990544;28;20178;-32
2023/10/19 02:51:53;;;;;;;17.43;15.63;;;10.50;99.90;;;;;;4974021;28;20191;-33
2023/10/19 02:54:24;;;;;;;16.10;14.47;;;10.50;99.90;;;;;;4973904;28;20183;-32
2023/10/19 02:56:53;;;;;;;17.93;15.00;;;10.50;99.90;;;;;;4988203;28;20332;-33
2023/10/19 02:59:24;;;;;;;17.90;15.33;;;10.50;99.90;;;;;;4989646;28;20224;-33
2023/10/19 03:01:51;;;;;;;16.87;14.00;;;10.60;99.90;;;;;;4986449;28;20210;-32
2023/10/19 03:04:17;;;;;;;16.90;15.10;;;10.60;99.90;;;;;;4971787;28;20198;-33
2023/10/19 03:06:43;;;;;;;17.70;15.80;;;10.60;99.90;;;;;;4990508;28;20180;-33
2023/10/19 03:09:22;;;;;;;18.00;15.87;;;10.70;99.90;;;;;;4973582;28;20181;-32
2023/10/19 03:14:16;;;;;;;17.03;13.87;;;10.70;99.90;;;;;;5014025;28;20212;-29
2023/10/19 03:16:42;;;;;;;14.50;12.50;;;10.70;99.90;;;;;;5001446;28;20188;-29
2023/10/19 03:19:08;;;;;;;15.63;13.07;;;10.70;99.90;;;;;;5001045;28;20213;-29
2023/10/19 03:21:42;;;;;;;14.53;12.37;;;10.70;99.90;;;;;;5001166;28;20177;-29
2023/10/19 03:24:35;;;;;;;16.00;12.90;;;10.60;99.90;;;;;;4979520;28;20200;-29
2023/10/19 03:27:24;;;;;;;12.53;11.27;;;10.60;99.90;;;;;;4980914;28;20181;-28
2023/10/19 03:29:55;;;;;;;14.93;12.10;;;10.60;99.90;;;;;;4995812;28;20209;-29
2023/10/19 03:32:26;;;;;;;13.23;11.83;;;10.60;99.90;;;;;;4996959;28;20216;-29
2023/10/19 03:34:55;;;;;;;12.97;11.57;;;10.60;99.90;;;;;;4988041;28;20182;-28
2023/10/19 03:37:25;;;;;;;12.83;11.50;;;10.60;99.90;;;;;;4980826;28;20264;-29
2023/10/19 03:39:53;;;;;;;15.13;11.77;;;10.60;99.90;;;;;;4999373;28;20476;-29
2023/10/19 03:42:25;;;;;;;14.07;11.90;;;10.50;99.90;;;;;;5003682;28;20202;-29
2023/10/19 03:47:20;;;;;;;13.37;11.50;;;10.50;99.90;;;;;;4987424;28;20190;-29
2023/10/19 03:49:50;;;;;;;13.23;11.23;;;10.40;99.90;;;;;;4984885;28;20257;-29
2023/10/19 03:54:42;;;;;;;11.07;9.97;;;10.40;99.90;;;;;;5002874;28;20192;-29
2023/10/19 03:57:13;;;;;;;11.57;9.77;;;10.30;99.90;;;;;;4986443;28;20182;-28
2023/10/19 03:59:39;;;;;;;10.40;9.30;;;10.30;99.90;;;;;;4985177;28;20256;-29
2023/10/19 04:02:16;;;;;;;11.67;10.13;;;10.20;99.90;;;;;;4991471;28;20181;-29
2023/10/19 04:04:49;;;;;;;11.27;9.87;;;10.20;99.90;;;;;;5001107;28;20196;-28
2023/10/19 04:07:21;;;;;;;12.30;10.13;;;10.20;99.90;;;;;;4985218;28;20189;-29
2023/10/19 04:12:31;;;;;;;10.53;8.73;;;10.10;99.90;;;;;;4987447;28;20243;-28
2023/10/19 04:14:57;;;;;;;14.67;12.30;;;10.00;99.90;;;;;;4985285;28;20184;-28
2023/10/19 04:17:24;;;;;;;15.97;13.50;;;10.00;99.90;;;;;;5018749;28;20193;-28
2023/10/19 04:19:55;;;;;;;28.13;16.73;;;10.00;99.90;;;;;;4999656;28;20213;-29
2023/10/19 04:22:23;;;;;;;16.80;15.07;;;10.00;99.90;;;;;;4990895;28;20284;-29
2023/10/19 04:24:51;;;;;;;28.70;20.63;;;9.90;99.90;;;;;;4989576;28;20332;-28
2023/10/19 04:27:17;;;;;;;21.17;18.97;;;9.90;99.90;;;;;;4984076;28;20184;-29
2023/10/19 04:29:44;;;;;;;19.53;17.60;;;9.80;99.90;;;;;;4985058;28;20266;-28
2023/10/19 04:32:13;;;;;;;16.37;14.77;;;9.80;99.90;;;;;;4983065;28;20207;-29
2023/10/19 04:34:39;;;;;;;13.97;12.57;;;9.80;99.90;;;;;;5016386;28;20184;-28
2023/10/19 04:37:06;;;;;;;15.00;13.40;;;9.70;99.90;;;;;;4983698;28;20180;-28
2023/10/19 04:39:34;;;;;;;14.13;12.77;;;9.80;99.90;;;;;;4991269;28;20253;-29
2023/10/19 04:42:00;;;;;;;13.10;11.73;;;9.70;99.90;;;;;;4999169;28;20191;-28
2023/10/19 04:44:26;;;;;;;13.33;11.50;;;9.70;99.90;;;;;;4984101;28;20188;-28
2023/10/19 04:46:52;;;;;;;11.60;10.40;;;9.70;99.90;;;;;;4984809;28;20185;-29
2023/10/19 04:49:18;;;;;;;12.67;11.33;;;9.70;99.90;;;;;;4983904;28;20192;-29
2023/10/19 04:51:44;;;;;;;12.43;11.13;;;9.80;99.90;;;;;;4983041;28;20188;-29
2023/10/19 04:54:10;;;;;;;11.93;10.73;;;9.80;99.90;;;;;;4989469;28;20205;-28
2023/10/19 04:56:36;;;;;;;10.60;9.60;;;9.70;99.90;;;;;;4981619;28;20190;-29
2023/10/19 04:59:03;;;;;;;11.23;10.13;;;9.70;99.90;;;;;;4981044;28;20221;-29
2023/10/19 05:01:29;;;;;;;10.77;9.67;;;9.80;99.90;;;;;;4991157;28;20237;-29
2023/10/19 05:03:55;;;;;;;10.90;9.90;;;9.70;99.90;;;;;;4982177;28;20195;-28
2023/10/19 05:06:22;;;;;;;16.13;11.80;;;9.70;99.90;;;;;;4983396;28;20186;-29
2023/10/19 05:08:47;;;;;;;11.97;10.77;;;9.70;99.90;;;;;;4985488;28;20182;-29
2023/10/19 05:11:13;;;;;;;12.07;10.27;;;9.70;99.90;;;;;;4982121;28;20196;-29
2023/10/19 05:13:39;;;;;;;12.30;10.77;;;9.70;99.90;;;;;;4990753;28;20220;-29
2023/10/19 05:16:05;;;;;;;14.00;12.47;;;9.70;99.90;;;;;;4982347;28;20197;-30
2023/10/19 05:18:31;;;;;;;41.87;13.00;;;9.70;99.90;;;;;;4967426;28;20374;-27
2023/10/19 05:20:57;;;;;;;15.90;11.30;;;9.70;99.90;;;;;;4976545;28;20204;-29
2023/10/19 05:23:24;;;;;;;31.73;12.13;;;9.60;99.90;;;;;;4989664;28;20231;-28
2023/10/19 05:25:59;;;;;;;26.67;11.57;;;9.60;99.90;;;;;;4964748;28;20217;-29
2023/10/19 05:28:25;;;;;;;13.00;11.03;;;9.60;99.90;;;;;;4957401;28;20189;-30
2023/10/19 05:30:51;;;;;;;13.40;11.57;;;9.60;99.90;;;;;;4976312;28;20699;-30
2023/10/19 05:33:20;;;;;;;51.10;12.10;;;9.50;99.90;;;;;;4992436;28;20275;-30
2023/10/19 05:35:50;;;;;;;59.87;13.13;;;9.50;99.90;;;;;;4993841;28;20183;-29
2023/10/19 05:38:21;;;;;;;22.07;13.10;;;9.40;99.90;;;;;;4964482;28;20192;-29
2023/10/19 05:40:49;;;;;;;19.53;12.80;;;9.40;99.90;;;;;;4970830;28;20189;-29
2023/10/19 05:43:15;;;;;;;13.10;11.80;;;9.40;99.90;;;;;;4973852;28;20204;-30
2023/10/19 05:45:42;;;;;;;15.00;12.10;;;9.40;99.90;;;;;;4960160;28;20177;-29
2023/10/19 05:48:08;;;;;;;13.77;12.20;;;9.50;99.90;;;;;;4974858;28;20272;-30
2023/10/19 05:50:35;;;;;;;12.97;11.67;;;9.50;99.90;;;;;;4976617;28;20252;-29
2023/10/19 05:53:03;;;;;;;12.47;11.23;;;9.50;99.90;;;;;;4990108;28;20197;-28
2023/10/19 05:55:29;;;;;;;12.87;11.10;;;9.60;99.90;;;;;;4988753;28;20188;-29
2023/10/19 05:57:55;;;;;;;11.50;10.30;;;9.60;99.90;;;;;;4953748;28;20188;-29
2023/10/19 06:00:25;;;;;;;11.40;10.20;;;9.60;99.90;;;;;;4974206;28;20201;-30
2023/10/19 06:02:52;;;;;;;12.13;10.50;;;9.70;99.90;;;;;;4973949;28;20295;-29
2023/10/19 06:05:18;;;;;;;11.97;10.67;;;9.70;99.90;;;;;;4981497;28;20215;-30
2023/10/19 06:07:49;;;;;;;12.93;10.40;;;9.70;99.90;;;;;;4984646;28;20191;-28
2023/10/19 06:10:20;;;;;;;10.93;9.87;;;9.70;99.90;;;;;;4994779;28;20181;-30
2023/10/19 06:12:48;;;;;;;11.30;10.10;;;9.80;99.90;;;;;;4961550;28;20248;-30
2023/10/19 06:15:14;;;;;;;10.57;9.47;;;9.80;99.90;;;;;;4987304;28;20241;-30
2023/10/19 06:17:41;;;;;;;10.90;9.53;;;9.90;99.90;;;;;;5006944;28;20189;-30
2023/10/19 06:20:19;;;;;;;10.73;9.63;;;9.90;99.90;;;;;;5007851;28;20229;-30
2023/10/19 06:22:52;;;;;;;11.37;9.77;;;10.00;99.90;;;;;;5007963;28;20239;-30
2023/10/19 06:25:19;;;;;;;12.37;9.63;;;10.00;99.90;;;;;;4983931;28;20184;-30
2023/10/19 06:27:46;;;;;;;14.27;10.00;;;10.10;99.90;;;;;;5004472;28;20184;-29
2023/10/19 06:30:17;;;;;;;11.83;10.17;;;10.20;99.90;;;;;;4970154;28;20184;-30
2023/10/19 06:32:48;;;;;;;13.33;10.20;;;10.20;99.90;;;;;;4991429;28;20266;-29
2023/10/19 06:35:13;;;;;;;13.77;11.27;;;10.30;99.90;;;;;;4991480;28;20181;-30
2023/10/19 06:37:40;;;;;;;12.30;10.23;;;10.30;99.90;;;;;;4989857;28;20201;-30
2023/10/19 06:40:06;;;;;;;13.20;10.33;;;10.40;99.90;;;;;;4982597;28;20208;-29
2023/10/19 06:42:32;;;;;;;13.70;10.77;;;10.30;99.90;;;;;;5005611;28;20263;-30
2023/10/19 06:44:58;;;;;;;12.63;10.57;;;10.40;99.90;;;;;;4981948;28;20190;-30
2023/10/19 06:47:24;;;;;;;14.27;10.30;;;10.40;99.90;;;;;;5006588;28;20197;-30
2023/10/19 06:49:50;;;;;;;14.70;10.23;;;10.50;99.90;;;;;;4958728;28;20186;-29
2023/10/19 06:52:16;;;;;;;12.83;10.30;;;10.50;99.90;;;;;;4980405;28;20705;-29
2023/10/19 06:54:41;;;;;;;13.23;10.93;;;10.50;99.90;;;;;;4969651;28;20210;-30
2023/10/19 06:57:08;;;;;;;13.03;11.10;;;10.50;99.90;;;;;;4970350;28;20192;-30
2023/10/19 06:59:36;;;;;;;13.37;10.37;;;10.50;99.90;;;;;;4984835;28;20218;-30
2023/10/19 07:02:02;;;;;;;12.33;9.87;;;10.60;99.90;;;;;;4986089;28;20234;-30
2023/10/19 07:04:29;;;;;;;12.53;9.97;;;10.60;99.90;;;;;;4992780;28;20171;-30
2023/10/19 07:06:55;;;;;;;12.77;10.20;;;10.70;99.90;;;;;;4991676;28;20176;-30
2023/10/19 07:09:22;;;;;;;12.23;9.47;;;10.80;99.90;;;;;;4957134;28;20277;-29
2023/10/19 07:11:52;;;;;;;12.13;10.43;;;10.80;99.90;;;;;;4986119;28;20538;-30
2023/10/19 07:14:19;;;;;;;14.97;12.63;;;10.90;99.90;;;;;;4966185;28;20281;-29
2023/10/19 07:16:45;;;;;;;14.77;13.17;;;10.90;99.90;;;;;;4969813;28;20186;-30
2023/10/19 07:19:11;;;;;;;17.47;15.57;;;10.90;99.90;;;;;;4986769;28;20221;-30
2023/10/19 07:21:38;;;;;;;18.10;14.60;;;10.90;99.90;;;;;;4973156;28;20195;-29
2023/10/19 07:24:09;;;;;;;21.00;17.20;;;10.90;99.90;;;;;;4986292;28;20204;-29
2023/10/19 07:26:43;;;;;;;19.00;16.23;;;10.90;99.90;;;;;;4984703;28;20180;-30
2023/10/19 07:29:10;;;;;;;15.13;13.63;;;10.90;99.90;;;;;;4969943;28;20212;-30
2023/10/19 07:31:36;;;;;;;15.03;13.53;;;10.90;99.90;;;;;;4970319;28;20192;-28
2023/10/19 07:34:03;;;;;;;13.43;11.90;;;10.90;99.90;;;;;;4976880;28;20210;-29
2023/10/19 07:36:31;;;;;;;14.63;13.07;;;10.90;99.90;;;;;;4973683;28;20256;-30
2023/10/19 07:38:57;;;;;;;13.90;12.27;;;10.90;99.90;;;;;;4986895;28;20215;-29
2023/10/19 07:41:23;;;;;;;13.63;12.33;;;10.90;99.90;;;;;;4970145;28;20187;-29
2023/10/19 07:43:48;;;;;;;13.93;12.13;;;10.90;99.90;;;;;;4953890;28;20210;-30
2023/10/19 07:46:15;;;;;;;12.20;10.97;;;10.90;99.90;;;;;;4986517;28;20180;-30
2023/10/19 07:48:43;;;;;;;12.43;11.13;;;10.90;99.90;;;;;;4977673;28;20210;-28
2023/10/19 07:51:11;;;;;;;12.73;11.43;;;10.90;99.90;;;;;;4990630;28;20195;-29
2023/10/19 07:53:37;;;;;;;12.93;11.33;;;11.00;99.90;;;;;;4965299;28;20214;-30
2023/10/19 07:56:05;;;;;;;12.43;11.13;;;11.00;99.90;;;;;;4954500;28;20187;-30
2023/10/19 07:58:31;;;;;;;13.60;12.17;;;11.10;99.90;;;;;;4963166;28;20239;-30
2023/10/19 08:00:57;;;;;;;13.87;12.57;;;11.10;99.90;;;;;;4974075;28;20183;-29
2023/10/19 08:03:23;;;;;;;13.63;12.23;;;11.20;99.90;;;;;;4997607;28;20210;-29
2023/10/19 08:05:48;;;;;;;13.13;11.70;;;11.20;99.90;;;;;;4994540;28;20209;-29
2023/10/19 08:08:14;;;;;;;12.10;10.80;;;11.30;99.90;;;;;;4985800;28;20180;-30
2023/10/19 08:10:41;;;;;;;11.60;10.40;;;11.30;99.90;;;;;;4967746;28;20195;-28
2023/10/19 08:13:07;;;;;;;11.67;10.53;;;11.40;99.90;;;;;;5007844;28;20214;-29
2023/10/19 08:15:33;;;;;;;15.73;12.00;;;11.50;99.90;;;;;;4971895;28;20177;-28
2023/10/19 08:17:59;;;;;;;13.33;11.93;;;11.60;99.90;;;;;;4987259;28;20206;-28
2023/10/19 08:20:31;;;;;;;13.53;12.13;;;11.70;99.90;;;;;;5006682;28;20299;-28
2023/10/19 08:22:58;;;;;;;13.87;12.43;;;11.80;99.90;;;;;;4986117;28;20223;-28
2023/10/19 08:25:28;;;;;;;13.00;11.80;;;11.90;99.90;;;;;;4977436;28;20188;-28
2023/10/19 08:27:57;;;;;;;14.43;13.13;;;12.00;99.90;;;;;;4990723;28;20254;-27
2023/10/19 08:30:42;;;;;;;15.47;13.87;;;12.10;99.90;;;;;;4987324;28;20395;-27
2023/10/19 08:33:15;;;;;;;16.67;14.43;;;12.20;99.90;;;;;;4994862;28;20277;-28
2023/10/19 08:35:41;;;;;;;15.70;14.13;;;12.30;99.90;;;;;;4981470;28;20180;-27
2023/10/19 08:38:11;;;;;;;15.40;13.77;;;12.30;99.90;;;;;;5008777;28;20633;-28
2023/10/19 08:40:38;;;;;;;14.27;12.80;;;12.40;99.90;;;;;;4980032;28;20188;-29
2023/10/19 08:43:04;;;;;;;16.17;14.50;;;12.50;99.90;;;;;;4981893;28;20193;-29
2023/10/19 08:45:34;;;;;;;15.43;13.90;;;12.50;99.90;;;;;;4993249;28;20447;-30
2023/10/19 08:48:02;;;;;;;14.57;13.17;;;12.60;99.90;;;;;;4989474;28;20187;-28
2023/10/19 08:50:30;;;;;;;14.13;12.73;;;12.70;99.90;;;;;;4993735;28;20180;-28
2023/10/19 08:52:57;;;;;;;13.00;11.47;;;12.70;99.90;;;;;;4988333;28;20212;-28
2023/10/19 08:55:24;;;;;;;13.50;12.20;;;12.80;99.90;;;;;;4981672;28;20188;-28
2023/10/19 08:57:53;;;;;;;12.20;11.00;;;12.90;99.90;;;;;;4959861;28;20185;-27
2023/10/19 09:00:24;;;;;;;12.20;11.00;;;12.90;99.90;;;;;;4975196;28;20222;-28
2023/10/19 09:02:56;;;;;;;13.83;11.60;;;13.00;99.90;;;;;;5026241;28;20227;-27
2023/10/19 09:05:22;;;;;;;13.93;12.53;;;13.10;99.90;;;;;;4962853;28;20280;-29
2023/10/19 09:07:54;;;;;;;13.43;12.13;;;13.10;99.90;;;;;;5008149;28;20191;-28
2023/10/19 09:10:25;;;;;;;12.77;11.47;;;13.20;99.90;;;;;;4990815;28;20203;-28
2023/10/19 09:13:09;;;;;;;12.27;10.97;;;13.20;99.90;;;;;;5004885;23;20314;-32
2023/10/19 09:15:39;;;;;;;11.77;10.67;;;13.30;99.90;;;;;;5009453;28;20176;-33
2023/10/19 09:18:16;;;;;;;12.83;10.80;;;13.40;99.90;;;;;;5005899;28;20569;-33
2023/10/19 09:20:52;;;;;;;11.23;10.17;;;13.40;99.90;;;;;;5026643;28;20213;-32
2023/10/19 09:23:27;;;;;;;11.60;10.37;;;13.40;99.90;;;;;;5011200;28;20199;-33
2023/10/19 09:25:54;;;;;;;11.10;9.97;;;13.50;99.90;;;;;;5001887;28;20636;-33
2023/10/19 09:28:25;;;;;;;11.17;9.90;;;13.60;99.90;;;;;;5009790;28;20180;-32
2023/10/19 09:30:51;;;;;;;14.00;11.30;;;13.60;99.90;;;;;;5005668;28;20239;-33
2023/10/19 09:33:18;;;;;;;12.83;11.50;;;13.60;99.90;;;;;;5002868;28;20202;-33
2023/10/19 09:35:48;;;;;;;15.77;11.80;;;13.60;99.90;;;;;;5010439;28;20190;-33
2023/10/19 09:38:27;;;;;;;13.97;12.03;;;13.70;99.90;;;;;;5004095;28;20667;-33
2023/10/19 09:40:55;;;;;;;15.73;12.43;;;13.60;99.90;;;;;;4997118;28;20198;-32
2023/10/19 09:43:45;;;;;;;13.30;11.43;;;13.60;99.90;;;;;;4995583;28;20286;-33
2023/10/19 09:46:15;;;;;;;11.07;9.87;;;13.70;99.90;;;;;;5007672;28;20179;-33
2023/10/19 09:48:45;;;;;;;12.37;10.27;;;13.70;99.90;;;;;;5005033;28;20227;-33
2023/10/19 09:51:12;;;;;;;12.10;9.77;;;13.70;99.90;;;;;;5011555;28;20271;-33
2023/10/19 09:53:39;;;;;;;11.60;10.43;;;13.70;99.90;;;;;;5007200;28;20205;-33
2023/10/19 09:56:19;;;;;;;10.53;9.43;;;13.70;99.90;;;;;;4995907;28;20184;-33
2023/10/19 09:58:53;;;;;;;11.63;10.13;;;13.70;99.90;;;;;;5015075;28;20209;-33
2023/10/19 10:01:21;;;;;;;10.27;9.27;;;13.80;99.90;;;;;;4994867;28;20222;-33
2023/10/19 10:03:49;;;;;;;10.67;9.23;;;13.80;99.90;;;;;;5010044;28;20289;-33
2023/10/19 10:06:20;;;;;;;10.13;9.13;;;13.80;99.90;;;;;;5011574;28;20270;-33
2023/10/19 10:08:47;;;;;;;11.63;10.13;;;13.90;99.90;;;;;;5009371;28;20191;-33
2023/10/19 10:11:26;;;;;;;10.57;9.50;;;13.90;99.90;;;;;;4997989;28;20191;-33
2023/10/19 10:13:54;;;;;;;10.60;8.70;;;14.00;99.90;;;;;;4997779;28;20306;-33
2023/10/19 10:16:25;;;;;;;10.63;8.73;;;14.00;99.90;;;;;;4996250;28;20210;-33
2023/10/19 10:19:00;;;;;;;8.77;7.87;;;14.00;99.90;;;;;;4998338;28;20215;-32
2023/10/19 10:21:30;;;;;;;10.70;9.00;;;14.00;99.90;;;;;;4994816;28;20257;-32
2023/10/19 10:24:04;;;;;;;11.83;9.73;;;14.10;99.90;;;;;;5000471;28;20211;-33
2023/10/19 10:26:51;;;;;;;11.60;8.70;;;14.10;99.90;;;;;;4994737;28;20185;-33
2023/10/19 10:29:26;;;;;;;10.37;8.13;;;14.10;99.90;;;;;;5002410;28;20188;-33
2023/10/19 10:31:52;;;;;;;10.27;8.63;;;14.20;99.90;;;;;;5004576;28;20187;-33
2023/10/19 10:34:36;;;;;;;10.50;8.77;;;14.30;99.90;;;;;;5011078;28;20205;-33
2023/10/19 10:37:10;;;;;;;10.50;9.33;;;14.30;99.90;;;;;;5027149;28;20257;-33
2023/10/19 10:39:38;;;;;;;14.23;11.80;;;14.40;99.90;;;;;;4995855;28;20200;-33
2023/10/19 10:42:08;;;;;;;10.57;9.47;;;14.40;99.90;;;;;;5010375;28;20199;-33
2023/10/19 10:44:40;;;;;;;10.27;8.70;;;14.40;99.90;;;;;;5010701;28;20180;-33
2023/10/19 10:47:29;;;;;;;9.73;8.30;;;14.40;99.90;;;;;;5010631;28;20179;-33
2023/10/19 10:50:00;;;;;;;8.77;7.97;;;14.40;99.90;;;;;;4994048;28;20193;-33
2023/10/19 10:52:34;;;;;;;10.80;8.50;;;14.40;99.90;;;;;;5026045;28;20211;-33
2023/10/19 10:55:12;;;;;;;9.07;8.17;;;14.40;99.90;;;;;;4993394;28;20192;-33
2023/10/19 10:57:39;;;;;;;9.00;8.20;;;14.40;99.90;;;;;;4990742;28;20186;-33
2023/10/19 11:00:15;;;;;;;8.60;7.73;;;14.40;99.90;;;;;;5016691;28;20211;-33
2023/10/19 11:02:43;;;;;;;8.90;8.00;;;14.40;99.90;;;;;;5010151;28;20199;-33
2023/10/19 11:05:12;;;;;;;10.27;7.90;;;14.30;99.90;;;;;;5010761;28;20195;-33
2023/10/19 11:07:39;;;;;;;9.53;8.53;;;14.30;99.90;;;;;;4998158;28;20198;-33
2023/10/19 11:10:05;;;;;;;13.10;9.83;;;14.30;99.90;;;;;;5006098;28;20187;-33
2023/10/19 11:12:32;;;;;;;9.70;8.70;;;14.30;99.90;;;;;;4994132;28;20207;-33
2023/10/19 11:14:59;;;;;;;10.93;8.90;;;14.30;99.90;;;;;;4997312;28;20183;-33
2023/10/19 11:17:32;;;;;;;9.43;8.43;;;14.40;99.90;;;;;;4994882;28;20184;-33
2023/10/19 11:19:58;;;;;;;10.50;8.37;;;14.40;99.90;;;;;;4994308;28;20222;-33
2023/10/19 11:22:26;;;;;;;8.93;8.03;;;14.40;99.90;;;;;;4995108;28;20176;-33
2023/10/19 11:24:56;;;;;;;11.73;9.27;;;14.40;99.90;;;;;;4992583;28;20187;-33
2023/10/19 11:27:31;;;;;;;10.10;9.07;;;14.40;99.90;;;;;;4989874;28;20176;-33
2023/10/19 11:29:59;;;;;;;11.70;10.37;;;14.50;99.90;;;;;;4994373;28;20187;-33
2023/10/19 11:32:25;;;;;;;13.37;11.47;;;14.60;99.90;;;;;;4994882;28;20278;-33
2023/10/19 11:34:56;;;;;;;11.90;9.50;;;14.60;99.90;;;;;;4979507;28;20195;-33
2023/10/19 11:37:23;;;;;;;12.10;9.93;;;14.70;99.90;;;;;;4995137;28;20175;-33
2023/10/19 11:39:52;;;;;;;11.30;9.83;;;14.70;99.90;;;;;;4994789;28;20208;-33
2023/10/19 11:42:20;;;;;;;11.23;9.90;;;14.80;99.90;;;;;;4994121;28;20281;-33
2023/10/19 11:44:46;;;;;;;12.50;10.83;;;14.80;99.90;;;;;;4991497;28;20211;-33
2023/10/19 11:47:15;;;;;;;11.40;10.23;;;14.80;99.90;;;;;;4998087;28;20266;-33
2023/10/19 11:49:41;;;;;;;11.83;9.73;;;14.80;99.90;;;;;;4995134;28;20212;-33
2023/10/19 11:52:08;;;;;;;11.03;9.83;;;14.80;99.90;;;;;;4995524;28;20261;-33
2023/10/19 11:54:34;;;;;;;11.60;10.40;;;14.90;99.90;;;;;;4997360;28;20216;-33
2023/10/19 11:57:00;;;;;;;10.90;9.80;;;14.90;99.90;;;;;;4989664;28;20199;-33
2023/10/19 11:59:26;;;;;;;10.60;9.50;;;14.90;99.90;;;;;;5011050;28;20207;-33
2023/10/19 12:01:54;;;;;;;10.80;9.70;;;14.90;99.90;;;;;;5000152;28;20179;-33
2023/10/19 12:04:20;;;;;;;9.93;8.93;;;14.90;99.90;;;;;;5000708;28;20212;-33
2023/10/19 12:06:46;;;;;;;11.93;7.97;;;14.80;99.90;;;;;;4999989;28;20188;-33
2023/10/19 12:09:15;;;;;;;9.97;7.87;;;14.80;99.90;;;;;;4998847;28;20237;-33
2023/10/19 12:11:41;;;;;;;8.63;7.80;;;14.80;99.90;;;;;;5018970;28;20214;-33
2023/10/19 12:14:11;;;;;;;7.30;6.63;;;14.80;99.90;;;;;;4997069;28;20296;-33
2023/10/19 12:16:39;;;;;;;7.47;6.67;;;14.80;99.90;;;;;;4994148;28;20308;-33
2023/10/19 12:19:05;;;;;;;10.30;9.03;;;14.80;99.90;;;;;;4998885;28;20207;-33
2023/10/19 12:21:33;;;;;;;12.37;11.07;;;14.90;99.90;;;;;;4991838;28;20176;-33
2023/10/19 12:24:04;;;;;;;15.50;13.20;;;15.00;99.90;;;;;;4997046;28;20204;-33
2023/10/19 12:26:32;;;;;;;14.60;12.37;;;15.00;99.90;;;;;;5002772;28;20226;-33
2023/10/19 12:28:58;;;;;;;12.97;10.43;;;15.10;99.90;;;;;;5000645;28;20180;-31
2023/10/19 12:31:25;;;;;;;12.73;11.50;;;15.10;99.90;;;;;;5001844;28;20191;-32
2023/10/19 12:33:50;;;;;;;15.03;11.87;;;15.10;99.90;;;;;;5003706;28;20214;-32
2023/10/19 12:36:32;;;;;;;13.43;10.77;;;15.20;99.90;;;;;;5002957;28;20648;-32
2023/10/19 12:38:59;;;;;;;13.63;9.90;;;15.20;99.90;;;;;;5002464;28;20212;-32
2023/10/19 12:41:27;;;;;;;12.17;10.13;;;15.20;99.90;;;;;;5001922;28;20184;-32
2023/10/19 12:44:08;;;;;;;11.87;10.03;;;15.20;99.90;;;;;;5003811;28;20200;-32
2023/10/19 12:46:36;;;;;;;15.87;13.43;;;15.20;99.90;;;;;;5002938;28;20180;-32
2023/10/19 12:49:08;;;;;;;12.17;10.60;;;15.20;99.90;;;;;;4983744;28;20192;-32
2023/10/19 12:51:34;;;;;;;13.63;12.03;;;15.20;99.90;;;;;;4995437;28;20184;-32
2023/10/19 12:54:03;;;;;;;11.73;10.50;;;15.20;99.90;;;;;;4995574;28;20227;-32
2023/10/19 12:56:33;;;;;;;10.37;9.27;;;15.30;99.90;;;;;;4992146;28;20207;-32
2023/10/19 12:58:59;;;;;;;6.80;5.60;;;15.30;99.90;;;;;;4997997;28;20203;-32
2023/10/19 13:01:27;;;;;;;6.40;5.83;;;15.40;99.90;;;;;;5001119;28;20183;-32
2023/10/19 13:03:54;;;;;;;6.57;5.50;;;15.50;99.90;;;;;;4978980;28;20200;-32
2023/10/19 13:06:20;;;;;;;5.10;4.57;;;15.50;99.90;;;;;;5004168;28;20184;-32